Darstellungsparameter: Aktuell verwendete Einstellungen:
Skalierung der Graphiken ... ?
xyx+y,   Skalierungsfaktor:      Skalierung: Modus: x, Faktor: 1
Darstellungszeitraum ... ?
Vom - - bis: - -   Zeitraum: 25.06.2021 - 25.06.2021
Min/Max/Avg-Anzeige ... ?
Zeige MMA aktuell
Zeige MMA Monat
Zeige MMA alles
Zeige --A aktuell
Zeige --A Monat
Zeige --A alles
Keine MMA-Anzeige
MMA:
Average (ber die Originaldaten)
MMA-Basis: 25.06.2021 - 25.06.2021
Quicknavigation für Darstellung... ?
Tage:      1T, 2T, 3T, 5T -1T -2T -3T -5T +1T +2T +3T +5T
Wochen: 1W, 2W, 3W -1W -2W -3W +1W +2W +3W
Monate: 1M, 3M, 6M -1M -3M -6M +1M +3M +6M
Jahre:    1J, 3J, 5J, 10J -1J -3J -5J -10J +1J +3J +5J +10J
Nutze für die Darstellung ... ?
Originaldaten oder Mittelwerte auf ...
Stundenbasis Tagesbasis Wochenbasis
Monatsbasis Jahresbasis      Datenbasis: Original-Daten
Darstellen als:
Statistik (Auto) Statistik J:M      Darstellung:
Zur Graphik,    zurück zur Übersicht aller Sensoren.
 
Tabellarische Datenbersicht: ?
 
Sensor: Nr:Datum:Temp:Abs-Feuchte:Windchill:Wind:
Aussen-T/F 1 25-06-2021 00:00:00 16.2 C 13.24 g/m*3 16.2 C 8.1 km/h
2 25-06-2021 00:05:00 16.2 C 13.24 g/m*3 16.2 C 6.4 km/h
3 25-06-2021 00:10:00 16.1 C 13.16 g/m*3 16.1 C 3.2 km/h
4 25-06-2021 00:15:00 16.1 C 13.16 g/m*3 16.1 C 9.7 km/h
5 25-06-2021 00:20:00 16.1 C 13.16 g/m*3 16.1 C 8.1 km/h
6 25-06-2021 00:25:00 16 C 13.08 g/m*3 16 C 3.2 km/h
7 25-06-2021 00:30:00 16 C 13.08 g/m*3 16 C 0 km/h
8 25-06-2021 00:35:00 15.9 C 13 g/m*3 15.9 C 8.1 km/h
9 25-06-2021 00:40:00 15.9 C 13 g/m*3 15.9 C 3.2 km/h
10 25-06-2021 00:45:00 15.9 C 13 g/m*3 15.9 C 4.8 km/h
11 25-06-2021 00:50:00 15.8 C 12.92 g/m*3 15.8 C 3.2 km/h
12 25-06-2021 00:55:00 15.8 C 12.92 g/m*3 15.8 C 4.8 km/h
13 25-06-2021 01:00:00 15.7 C 12.71 g/m*3 15.7 C 9.7 km/h
14 25-06-2021 01:05:00 15.7 C 12.71 g/m*3 15.7 C 3.2 km/h
15 25-06-2021 01:10:00 15.7 C 12.71 g/m*3 15.7 C 3.2 km/h
16 25-06-2021 01:15:00 15.7 C 12.71 g/m*3 15.7 C 6.4 km/h
17 25-06-2021 01:20:00 15.6 C 12.63 g/m*3 15.6 C 9.7 km/h
18 25-06-2021 01:25:00 15.6 C 12.63 g/m*3 15.6 C 8.1 km/h
19 25-06-2021 01:30:00 15.6 C 12.63 g/m*3 15.6 C 8.1 km/h
20 25-06-2021 01:35:00 15.4 C 12.48 g/m*3 15.4 C 8.1 km/h
21 25-06-2021 01:40:00 15.4 C 12.48 g/m*3 15.4 C 1.6 km/h
22 25-06-2021 01:45:00 15.5 C 12.56 g/m*3 15.5 C 6.4 km/h
23 25-06-2021 01:50:00 15.5 C 12.56 g/m*3 15.5 C 1.6 km/h
24 25-06-2021 01:55:00 15.5 C 12.56 g/m*3 15.5 C 4.8 km/h
25 25-06-2021 02:00:00 15.4 C 12.48 g/m*3 15.4 C 4.8 km/h
Sensor: Nr:Datum:Temp:Abs-Feuchte:Windchill:Wind:
Aussen-T/F 26 25-06-2021 02:05:00 15.4 C 12.48 g/m*3 15.4 C 0 km/h
27 25-06-2021 02:10:00 15.4 C 12.61 g/m*3 15.4 C 1.6 km/h
28 25-06-2021 02:15:00 15.4 C 12.61 g/m*3 15.4 C 6.4 km/h
29 25-06-2021 02:20:00 15.4 C 12.61 g/m*3 15.4 C 1.6 km/h
30 25-06-2021 02:25:00 15.4 C 12.61 g/m*3 15.4 C 1.6 km/h
31 25-06-2021 02:30:00 15.4 C 12.61 g/m*3 15.4 C 1.6 km/h
32 25-06-2021 02:35:00 15.4 C 12.61 g/m*3 15.4 C 6.4 km/h
33 25-06-2021 02:40:00 15.4 C 12.61 g/m*3 15.4 C 4.8 km/h
34 25-06-2021 02:45:00 15.4 C 12.61 g/m*3 15.4 C 1.6 km/h
35 25-06-2021 02:50:00 15.4 C 12.61 g/m*3 15.4 C 1.6 km/h
36 25-06-2021 02:55:00 15.3 C 12.54 g/m*3 15.3 C 1.6 km/h
37 25-06-2021 03:00:00 15.3 C 12.54 g/m*3 15.3 C 0 km/h
38 25-06-2021 03:05:00 15.3 C 12.54 g/m*3 15.3 C 3.2 km/h
39 25-06-2021 03:10:00 15.3 C 12.54 g/m*3 15.3 C 1.6 km/h
40 25-06-2021 03:15:00 15.3 C 12.54 g/m*3 15.3 C 4.8 km/h
41 25-06-2021 03:20:00 15.3 C 12.54 g/m*3 15.3 C 1.6 km/h
42 25-06-2021 03:25:00 15.3 C 12.54 g/m*3 15.3 C 0 km/h
43 25-06-2021 03:30:00 15.2 C 12.46 g/m*3 15.2 C 0 km/h
44 25-06-2021 03:35:00 15.2 C 12.46 g/m*3 15.2 C 0 km/h
45 25-06-2021 03:40:00 15.1 C 12.39 g/m*3 15.1 C 3.2 km/h
46 25-06-2021 03:45:00 15.1 C 12.39 g/m*3 15.1 C 0 km/h
47 25-06-2021 03:50:00 15.1 C 12.39 g/m*3 15.1 C 3.2 km/h
48 25-06-2021 03:55:00 15.1 C 12.39 g/m*3 15.1 C 0 km/h
49 25-06-2021 04:00:00 15.1 C 12.39 g/m*3 15.1 C 3.2 km/h
50 25-06-2021 04:05:00 15.1 C 12.39 g/m*3 15.1 C 1.6 km/h
Sensor: Nr:Datum:Temp:Abs-Feuchte:Windchill:Wind:
Aussen-T/F 51 25-06-2021 04:10:00 15 C 12.31 g/m*3 15 C 3.2 km/h
52 25-06-2021 04:15:00 15 C 12.31 g/m*3 15 C 3.2 km/h
53 25-06-2021 04:20:00 14.9 C 12.24 g/m*3 14.9 C 0 km/h
54 25-06-2021 04:25:00 14.9 C 12.24 g/m*3 14.9 C 4.8 km/h
55 25-06-2021 04:30:00 14.9 C 12.24 g/m*3 14.9 C 4.8 km/h
56 25-06-2021 04:35:00 14.8 C 12.16 g/m*3 14.8 C 4.8 km/h
57 25-06-2021 04:40:00 14.8 C 12.16 g/m*3 14.8 C 3.2 km/h
58 25-06-2021 04:45:00 14.7 C 12.09 g/m*3 14.7 C 1.6 km/h
59 25-06-2021 04:50:00 14.7 C 12.09 g/m*3 14.7 C 1.6 km/h
60 25-06-2021 04:55:00 14.6 C 12.01 g/m*3 14.6 C 4.8 km/h
61 25-06-2021 05:00:00 14.6 C 12.01 g/m*3 14.6 C 1.6 km/h
62 25-06-2021 05:05:00 14.6 C 12.01 g/m*3 14.6 C 3.2 km/h
63 25-06-2021 05:10:00 14.6 C 12.01 g/m*3 14.6 C 4.8 km/h
64 25-06-2021 05:15:00 14.6 C 12.01 g/m*3 14.6 C 3.2 km/h
65 25-06-2021 05:20:00 14.6 C 12.01 g/m*3 14.6 C 3.2 km/h
66 25-06-2021 05:25:00 14.6 C 12.01 g/m*3 14.6 C 4.8 km/h
67 25-06-2021 05:30:00 14.5 C 11.94 g/m*3 14.5 C 6.4 km/h
68 25-06-2021 05:35:00 14.5 C 11.94 g/m*3 14.5 C 3.2 km/h
69 25-06-2021 05:40:00 14.5 C 11.94 g/m*3 14.5 C 6.4 km/h
70 25-06-2021 05:45:00 14.4 C 11.87 g/m*3 14.4 C 1.6 km/h
71 25-06-2021 05:50:00 14.4 C 11.87 g/m*3 14.4 C 1.6 km/h
72 25-06-2021 05:55:00 14.3 C 11.79 g/m*3 14.3 C 1.6 km/h
73 25-06-2021 06:00:00 14.3 C 11.79 g/m*3 14.3 C 4.8 km/h
74 25-06-2021 06:05:00 14.3 C 11.79 g/m*3 14.3 C 1.6 km/h
75 25-06-2021 06:10:00 14.3 C 11.79 g/m*3 14.3 C 3.2 km/h
Sensor: Nr:Datum:Temp:Abs-Feuchte:Windchill:Wind:
Aussen-T/F 76 25-06-2021 06:15:00 14.3 C 11.79 g/m*3 14.3 C 1.6 km/h
77 25-06-2021 06:20:00 14.3 C 11.79 g/m*3 14.3 C 1.6 km/h
78 25-06-2021 06:25:00 14.3 C 11.79 g/m*3 14.3 C 1.6 km/h
79 25-06-2021 06:30:00 14.3 C 11.79 g/m*3 14.3 C 4.8 km/h
80 25-06-2021 06:35:00 14.3 C 11.79 g/m*3 14.3 C 4.8 km/h
81 25-06-2021 06:40:00 14.3 C 11.79 g/m*3 14.3 C 4.8 km/h
82 25-06-2021 06:45:00 14.4 C 11.99 g/m*3 14.4 C 1.6 km/h
83 25-06-2021 06:50:00 14.4 C 11.99 g/m*3 14.4 C 0 km/h
84 25-06-2021 06:55:00 14.5 C 12.06 g/m*3 14.5 C 0 km/h
85 25-06-2021 07:00:00 14.6 C 12.14 g/m*3 14.6 C 0 km/h
86 25-06-2021 07:05:00 14.7 C 12.21 g/m*3 14.7 C 0 km/h
87 25-06-2021 07:10:00 14.8 C 12.29 g/m*3 14.8 C 0 km/h
88 25-06-2021 07:15:00 14.8 C 12.29 g/m*3 14.8 C 0 km/h
89 25-06-2021 07:20:00 14.8 C 12.29 g/m*3 14.8 C 0 km/h
90 25-06-2021 07:25:00 14.7 C 12.09 g/m*3 14.7 C 0 km/h
91 25-06-2021 07:30:00 14.7 C 12.21 g/m*3 14.7 C 0 km/h
92 25-06-2021 07:35:00 14.8 C 12.29 g/m*3 14.8 C 0 km/h
93 25-06-2021 07:40:00 14.9 C 12.36 g/m*3 14.9 C 0 km/h
94 25-06-2021 07:45:00 15 C 12.44 g/m*3 15 C 0 km/h
95 25-06-2021 07:50:00 15.1 C 12.51 g/m*3 15.1 C 0 km/h
96 25-06-2021 07:55:00 15.2 C 12.59 g/m*3 15.2 C 0 km/h
97 25-06-2021 08:00:00 15.3 C 12.67 g/m*3 15.3 C 0 km/h
98 25-06-2021 08:05:00 15.4 C 12.74 g/m*3 15.4 C 0 km/h
99 25-06-2021 08:10:00 15.4 C 12.74 g/m*3 15.4 C 0 km/h
100 25-06-2021 08:15:00 15.4 C 12.74 g/m*3 15.4 C 0 km/h
Sensor: Nr:Datum:Temp:Abs-Feuchte:Windchill:Wind:
Aussen-T/F 101 25-06-2021 08:20:00 15.3 C 12.54 g/m*3 15.3 C 0 km/h
102 25-06-2021 08:25:00 15.4 C 12.61 g/m*3 15.4 C 0 km/h
103 25-06-2021 08:30:00 15.4 C 12.61 g/m*3 15.4 C 0 km/h
104 25-06-2021 08:35:00 15.6 C 12.77 g/m*3 15.6 C 0 km/h
105 25-06-2021 08:40:00 15.6 C 12.77 g/m*3 15.6 C 0 km/h
106 25-06-2021 08:45:00 15.7 C 12.71 g/m*3 15.7 C 6.4 km/h
107 25-06-2021 08:50:00 15.7 C 12.58 g/m*3 15.7 C 9.7 km/h
108 25-06-2021 08:55:00 15.7 C 12.44 g/m*3 15.7 C 4.8 km/h
109 25-06-2021 09:00:00 15.8 C 12.52 g/m*3 15.8 C 9.7 km/h
110 25-06-2021 09:05:00 15.9 C 12.46 g/m*3 15.9 C 1.6 km/h
111 25-06-2021 09:10:00 16 C 12.53 g/m*3 16 C 6.4 km/h
112 25-06-2021 09:15:00 16.1 C 12.61 g/m*3 16.1 C 9.7 km/h
113 25-06-2021 09:20:00 16.1 C 12.47 g/m*3 16.1 C 4.8 km/h
114 25-06-2021 09:25:00 16.2 C 12.55 g/m*3 16.2 C 9.7 km/h
115 25-06-2021 09:30:00 16.2 C 12.41 g/m*3 16.2 C 8.1 km/h
116 25-06-2021 09:35:00 16.3 C 12.62 g/m*3 16.3 C 3.2 km/h
117 25-06-2021 09:40:00 16.3 C 12.49 g/m*3 16.3 C 4.8 km/h
118 25-06-2021 09:45:00 16.4 C 12.42 g/m*3 16.4 C 8.1 km/h
119 25-06-2021 09:50:00 16.4 C 12.42 g/m*3 16.4 C 8.1 km/h
120 25-06-2021 09:55:00 16.5 C 12.5 g/m*3 16.5 C 6.4 km/h
121 25-06-2021 10:00:00 16.6 C 12.57 g/m*3 16.6 C 4.8 km/h
122 25-06-2021 10:05:00 16.7 C 12.65 g/m*3 16.7 C 4.8 km/h
123 25-06-2021 10:10:00 16.8 C 12.72 g/m*3 16.8 C 3.2 km/h
124 25-06-2021 10:15:00 16.8 C 12.58 g/m*3 16.8 C 4.8 km/h
125 25-06-2021 10:20:00 16.9 C 12.66 g/m*3 16.9 C 3.2 km/h
Sensor: Nr:Datum:Temp:Abs-Feuchte:Windchill:Wind:
Aussen-T/F 126 25-06-2021 10:25:00 17 C 12.59 g/m*3 17 C 3.2 km/h
127 25-06-2021 10:30:00 17.1 C 12.66 g/m*3 17.1 C 1.6 km/h
128 25-06-2021 10:35:00 17.1 C 12.66 g/m*3 17.1 C 1.6 km/h
129 25-06-2021 10:40:00 17.3 C 12.96 g/m*3 17.3 C 1.6 km/h
130 25-06-2021 10:45:00 17.4 C 12.89 g/m*3 17.4 C 1.6 km/h
131 25-06-2021 10:50:00 17.6 C 13.05 g/m*3 17.6 C 1.6 km/h
132 25-06-2021 10:55:00 17.6 C 12.9 g/m*3 17.6 C 1.6 km/h
133 25-06-2021 11:00:00 17.7 C 12.82 g/m*3 17.7 C 8.1 km/h
134 25-06-2021 11:05:00 17.8 C 13.05 g/m*3 17.8 C 0 km/h
135 25-06-2021 11:10:00 18 C 13.06 g/m*3 18 C 1.6 km/h
136 25-06-2021 11:15:00 18.2 C 13.21 g/m*3 18.2 C 3.2 km/h
137 25-06-2021 11:20:00 18.3 C 13.29 g/m*3 18.3 C 6.4 km/h
138 25-06-2021 11:25:00 18.6 C 13.21 g/m*3 18.6 C 6.4 km/h
139 25-06-2021 11:30:00 18.6 C 13.05 g/m*3 18.6 C 4.8 km/h
140 25-06-2021 11:35:00 18.7 C 13.13 g/m*3 18.7 C 0 km/h
141 25-06-2021 11:40:00 18.8 C 13.53 g/m*3 18.8 C 0 km/h
142 25-06-2021 11:45:00 18.8 C 13.05 g/m*3 18.8 C 0 km/h
143 25-06-2021 11:50:00 18.9 C 13.12 g/m*3 18.9 C 0 km/h
144 25-06-2021 11:55:00 19 C 13.04 g/m*3 19 C 4.8 km/h
145 25-06-2021 12:00:00 19.1 C 13.11 g/m*3 19.1 C 3.2 km/h
146 25-06-2021 12:05:00 19.1 C 13.11 g/m*3 19.1 C 0 km/h
147 25-06-2021 12:10:00 19.2 C 13.36 g/m*3 19.2 C 0 km/h
148 25-06-2021 12:15:00 19.3 C 13.44 g/m*3 19.3 C 0 km/h
149 25-06-2021 12:20:00 19.4 C 13.18 g/m*3 19.4 C 6.4 km/h
150 25-06-2021 12:25:00 19.4 C 12.85 g/m*3 19.4 C 3.2 km/h
Sensor: Nr:Datum:Temp:Abs-Feuchte:Windchill:Wind:
Aussen-T/F 151 25-06-2021 12:30:00 19.6 C 13.51 g/m*3 19.6 C 1.6 km/h
152 25-06-2021 12:35:00 19.7 C 13.41 g/m*3 19.7 C 4.8 km/h
153 25-06-2021 12:40:00 19.8 C 13.15 g/m*3 19.8 C 4.8 km/h
154 25-06-2021 12:45:00 19.7 C 13.08 g/m*3 19.7 C 4.8 km/h
155 25-06-2021 12:50:00 19.7 C 12.91 g/m*3 19.7 C 3.2 km/h
156 25-06-2021 12:55:00 19.7 C 13.08 g/m*3 19.7 C 4.8 km/h
157 25-06-2021 13:00:00 19.6 C 13 g/m*3 19.6 C 6.4 km/h
158 25-06-2021 13:05:00 19.6 C 13.34 g/m*3 19.6 C 6.4 km/h
159 25-06-2021 13:10:00 19.4 C 13.01 g/m*3 19.4 C 6.4 km/h
160 25-06-2021 13:15:00 19.4 C 13.35 g/m*3 19.4 C 3.2 km/h
161 25-06-2021 13:20:00 19.6 C 13.17 g/m*3 19.6 C 8.1 km/h
162 25-06-2021 13:25:00 19.7 C 13.08 g/m*3 19.7 C 6.4 km/h
163 25-06-2021 13:30:00 19.8 C 12.98 g/m*3 19.8 C 8.1 km/h
164 25-06-2021 13:35:00 19.8 C 12.98 g/m*3 19.8 C 6.4 km/h
165 25-06-2021 13:40:00 19.9 C 13.06 g/m*3 19.9 C 4.8 km/h
166 25-06-2021 13:45:00 20.2 C 12.94 g/m*3 20.2 C 9.7 km/h
167 25-06-2021 13:50:00 20.4 C 13.09 g/m*3 20.4 C 9.7 km/h
168 25-06-2021 13:55:00 20.4 C 12.74 g/m*3 20.4 C 8.1 km/h
169 25-06-2021 14:00:00 20.6 C 13.24 g/m*3 20.6 C 8.1 km/h
170 25-06-2021 14:05:00 20.7 C 12.96 g/m*3 20.7 C 11.3 km/h
171 25-06-2021 14:10:00 20.8 C 12.31 g/m*3 20.8 C 11.3 km/h
172 25-06-2021 14:15:00 20.9 C 12.75 g/m*3 20.9 C 4.8 km/h
173 25-06-2021 14:20:00 20.9 C 12.38 g/m*3 20.9 C 9.7 km/h
174 25-06-2021 14:25:00 20.9 C 12.2 g/m*3 20.9 C 9.7 km/h
175 25-06-2021 14:30:00 21 C 12.27 g/m*3 21 C 6.4 km/h
Sensor: Nr:Datum:Temp:Abs-Feuchte:Windchill:Wind:
Aussen-T/F 176 25-06-2021 14:35:00 20.9 C 12.75 g/m*3 20.9 C 4.8 km/h
177 25-06-2021 14:40:00 20.8 C 12.31 g/m*3 20.8 C 9.7 km/h
178 25-06-2021 14:45:00 20.7 C 12.42 g/m*3 20.7 C 6.4 km/h
179 25-06-2021 14:50:00 20.7 C 12.6 g/m*3 20.7 C 9.7 km/h
180 25-06-2021 14:55:00 21 C 12.46 g/m*3 21 C 8.1 km/h
181 25-06-2021 15:00:00 21.3 C 12.12 g/m*3 21.3 C 9.7 km/h
182 25-06-2021 15:05:00 21.6 C 12.71 g/m*3 21.6 C 12.9 km/h
183 25-06-2021 15:10:00 21.9 C 11.96 g/m*3 21.9 C 9.7 km/h
184 25-06-2021 15:15:00 22.1 C 12.3 g/m*3 22.1 C 14.5 km/h
185 25-06-2021 15:20:00 22.2 C 12.37 g/m*3 22.2 C 12.9 km/h
186 25-06-2021 15:25:00 22.3 C 12.83 g/m*3 22.3 C 6.4 km/h
187 25-06-2021 15:30:00 22.6 C 11.65 g/m*3 22.6 C 11.3 km/h
188 25-06-2021 15:35:00 22.7 C 12.12 g/m*3 22.7 C 6.4 km/h
189 25-06-2021 15:40:00 22.6 C 12.25 g/m*3 22.6 C 6.4 km/h
190 25-06-2021 15:45:00 22.9 C 11.85 g/m*3 22.9 C 12.9 km/h
191 25-06-2021 15:50:00 22.8 C 12.19 g/m*3 22.8 C 8.1 km/h
192 25-06-2021 15:55:00 22.8 C 12.4 g/m*3 22.8 C 11.3 km/h
193 25-06-2021 16:00:00 22.7 C 12.32 g/m*3 22.7 C 4.8 km/h
194 25-06-2021 16:05:00 22.6 C 12.25 g/m*3 22.6 C 9.7 km/h
195 25-06-2021 16:10:00 22.6 C 12.25 g/m*3 22.6 C 4.8 km/h
196 25-06-2021 16:15:00 22.7 C 12.73 g/m*3 22.7 C 6.4 km/h
197 25-06-2021 16:20:00 23 C 11.72 g/m*3 23 C 9.7 km/h
198 25-06-2021 16:25:00 23.3 C 11.5 g/m*3 23.3 C 4.8 km/h
199 25-06-2021 16:30:00 23.6 C 12.12 g/m*3 23.6 C 6.4 km/h
200 25-06-2021 16:35:00 23.8 C 11.83 g/m*3 23.8 C 9.7 km/h
Sensor: Nr:Datum:Temp:Abs-Feuchte:Windchill:Wind:
Aussen-T/F 201 25-06-2021 16:40:00 24 C 11.75 g/m*3 24 C 12.9 km/h
202 25-06-2021 16:45:00 24.1 C 12.03 g/m*3 24.1 C 14.5 km/h
203 25-06-2021 16:50:00 24.3 C 11.51 g/m*3 24.3 C 12.9 km/h
204 25-06-2021 16:55:00 24.4 C 11.57 g/m*3 24.4 C 9.7 km/h
205 25-06-2021 17:00:00 24.6 C 11.48 g/m*3 24.6 C 8.1 km/h
206 25-06-2021 17:05:00 24.7 C 11.54 g/m*3 24.7 C 6.4 km/h
207 25-06-2021 17:10:00 24.7 C 11.09 g/m*3 24.7 C 14.5 km/h
208 25-06-2021 17:15:00 24.7 C 11.77 g/m*3 24.7 C 8.1 km/h
209 25-06-2021 17:20:00 24.7 C 11.09 g/m*3 24.7 C 8.1 km/h
210 25-06-2021 17:25:00 24.8 C 11.61 g/m*3 24.8 C 6.4 km/h
211 25-06-2021 17:30:00 24.9 C 11.67 g/m*3 24.9 C 9.7 km/h
212 25-06-2021 17:35:00 24.9 C 11.9 g/m*3 24.9 C 6.4 km/h
213 25-06-2021 17:40:00 25.1 C 13.2 g/m*3 25.1 C 6.4 km/h
214 25-06-2021 17:45:00 25.3 C 11.47 g/m*3 25.3 C 6.4 km/h
215 25-06-2021 17:50:00 25.2 C 10.94 g/m*3 25.2 C 4.8 km/h
216 25-06-2021 17:55:00 25.1 C 11.11 g/m*3 25.1 C 4.8 km/h
217 25-06-2021 18:00:00 25.2 C 11.41 g/m*3 25.2 C 8.1 km/h
218 25-06-2021 18:05:00 25.4 C 12.48 g/m*3 25.4 C 1.6 km/h
219 25-06-2021 18:10:00 25.7 C 11.01 g/m*3 25.7 C 4.8 km/h
220 25-06-2021 18:15:00 25.7 C 11.73 g/m*3 25.7 C 4.8 km/h
221 25-06-2021 18:20:00 25.7 C 10.77 g/m*3 25.7 C 9.7 km/h
222 25-06-2021 18:25:00 25.6 C 10.95 g/m*3 25.6 C 8.1 km/h
223 25-06-2021 18:30:00 25.6 C 10.48 g/m*3 25.6 C 6.4 km/h
224 25-06-2021 18:35:00 25.5 C 11.13 g/m*3 25.5 C 6.4 km/h
225 25-06-2021 18:40:00 25.4 C 10.83 g/m*3 25.4 C 9.7 km/h
Sensor: Nr:Datum:Temp:Abs-Feuchte:Windchill:Wind:
Aussen-T/F 226 25-06-2021 18:45:00 25.1 C 10.88 g/m*3 25.1 C 9.7 km/h
227 25-06-2021 18:50:00 24.8 C 10.24 g/m*3 24.8 C 8.1 km/h
228 25-06-2021 18:55:00 24.6 C 10.58 g/m*3 24.6 C 9.7 km/h
229 25-06-2021 19:00:00 24.4 C 10.24 g/m*3 24.4 C 9.7 km/h
230 25-06-2021 19:05:00 24.3 C 11.06 g/m*3 24.3 C 6.4 km/h
231 25-06-2021 19:10:00 24.3 C 11.06 g/m*3 24.3 C 8.1 km/h
232 25-06-2021 19:15:00 24.2 C 10.56 g/m*3 24.2 C 8.1 km/h
233 25-06-2021 19:20:00 24.1 C 10.72 g/m*3 24.1 C 6.4 km/h
234 25-06-2021 19:25:00 24.1 C 11.38 g/m*3 24.1 C 4.8 km/h
235 25-06-2021 19:30:00 24.1 C 12.03 g/m*3 24.1 C 3.2 km/h
236 25-06-2021 19:35:00 24.1 C 12.91 g/m*3 24.1 C 6.4 km/h
237 25-06-2021 19:40:00 24.1 C 12.47 g/m*3 24.1 C 3.2 km/h
238 25-06-2021 19:45:00 24.1 C 13.13 g/m*3 24.1 C 1.6 km/h
239 25-06-2021 19:50:00 23.9 C 12.11 g/m*3 23.9 C 0 km/h
240 25-06-2021 19:55:00 23.8 C 13.12 g/m*3 23.8 C 1.6 km/h
241 25-06-2021 20:00:00 23.7 C 13.05 g/m*3 23.7 C 1.6 km/h
242 25-06-2021 20:05:00 23.6 C 13.19 g/m*3 23.6 C 1.6 km/h
243 25-06-2021 20:10:00 23.4 C 13.88 g/m*3 23.4 C 0 km/h
244 25-06-2021 20:15:00 23.2 C 13.51 g/m*3 23.2 C 0 km/h
245 25-06-2021 20:20:00 23 C 13.36 g/m*3 23 C 0 km/h
246 25-06-2021 20:25:00 22.8 C 13.41 g/m*3 22.8 C 0 km/h
247 25-06-2021 20:30:00 22.6 C 13.26 g/m*3 22.6 C 0 km/h
248 25-06-2021 20:35:00 22.2 C 13.15 g/m*3 22.2 C 0 km/h
249 25-06-2021 20:40:00 21.9 C 13.12 g/m*3 21.9 C 0 km/h
250 25-06-2021 20:45:00 21.4 C 12.75 g/m*3 21.4 C 0 km/h
Sensor: Nr:Datum:Temp:Abs-Feuchte:Windchill:Wind:
Aussen-T/F 251 25-06-2021 20:50:00 21 C 12.82 g/m*3 21 C 4.8 km/h
252 25-06-2021 20:55:00 20.5 C 12.63 g/m*3 20.5 C 4.8 km/h
253 25-06-2021 21:00:00 20 C 12.62 g/m*3 20 C 6.4 km/h
254 25-06-2021 21:05:00 19.6 C 12.66 g/m*3 19.6 C 6.4 km/h
255 25-06-2021 21:10:00 19.2 C 12.7 g/m*3 19.2 C 6.4 km/h
256 25-06-2021 21:15:00 18.8 C 12.4 g/m*3 18.8 C 8.1 km/h
257 25-06-2021 21:20:00 18.5 C 12.18 g/m*3 18.5 C 8.1 km/h
258 25-06-2021 21:25:00 18.2 C 11.97 g/m*3 18.2 C 8.1 km/h
259 25-06-2021 21:30:00 17.9 C 12.06 g/m*3 17.9 C 8.1 km/h
260 25-06-2021 21:35:00 17.7 C 11.77 g/m*3 17.7 C 6.4 km/h
261 25-06-2021 21:40:00 17.6 C 12 g/m*3 17.6 C 8.1 km/h
262 25-06-2021 21:45:00 17.4 C 12 g/m*3 17.4 C 8.1 km/h
263 25-06-2021 21:50:00 17.3 C 12.08 g/m*3 17.3 C 8.1 km/h
264 25-06-2021 21:55:00 17.1 C 11.94 g/m*3 17.1 C 8.1 km/h
265 25-06-2021 22:00:00 16.9 C 11.79 g/m*3 16.9 C 6.4 km/h
266 25-06-2021 22:05:00 16.8 C 11.58 g/m*3 16.8 C 6.4 km/h
267 25-06-2021 22:10:00 16.7 C 11.8 g/m*3 16.7 C 3.2 km/h
268 25-06-2021 22:15:00 16.6 C 11.72 g/m*3 16.6 C 3.2 km/h
269 25-06-2021 22:20:00 16.4 C 11.58 g/m*3 16.4 C 0 km/h
270 25-06-2021 22:25:00 16.3 C 11.65 g/m*3 16.3 C 1.6 km/h
271 25-06-2021 22:30:00 16.2 C 11.72 g/m*3 16.2 C 1.6 km/h
272 25-06-2021 22:35:00 16 C 11.58 g/m*3 16 C 1.6 km/h
273 25-06-2021 22:40:00 15.8 C 11.44 g/m*3 15.8 C 1.6 km/h
274 25-06-2021 22:45:00 15.7 C 11.51 g/m*3 15.7 C 0 km/h
275 25-06-2021 22:50:00 15.6 C 11.44 g/m*3 15.6 C 0 km/h
Sensor: Nr:Datum:Temp:Abs-Feuchte:Windchill:Wind:
Aussen-T/F 276 25-06-2021 22:55:00 15.4 C 11.3 g/m*3 15.4 C 0 km/h
277 25-06-2021 23:00:00 15.2 C 11.16 g/m*3 15.2 C 0 km/h
278 25-06-2021 23:05:00 15.1 C 11.22 g/m*3 15.1 C 0 km/h
279 25-06-2021 23:10:00 15 C 11.16 g/m*3 15 C 0 km/h
280 25-06-2021 23:15:00 14.9 C 11.22 g/m*3 14.9 C 0 km/h
281 25-06-2021 23:20:00 14.8 C 11.15 g/m*3 14.8 C 0 km/h
282 25-06-2021 23:25:00 14.7 C 11.08 g/m*3 14.7 C 0 km/h
283 25-06-2021 23:30:00 14.6 C 11.14 g/m*3 14.6 C 0 km/h
284 25-06-2021 23:35:00 14.5 C 11.07 g/m*3 14.5 C 0 km/h
285 25-06-2021 23:40:00 14.4 C 11 g/m*3 14.4 C 0 km/h
286 25-06-2021 23:45:00 14.3 C 10.93 g/m*3 14.3 C 0 km/h
287 25-06-2021 23:50:00 14.2 C 10.87 g/m*3 14.2 C 0 km/h
288 25-06-2021 23:55:00 14.2 C 10.87 g/m*3 14.2 C 0 km/h

Legende:
   Min
   Max


Maximal/Minimal-Werte vom 25.06.2021 - 25.06.2021

Sensor Min Max Avg
Temp
(Aussen-T/F)
14.2 °C
25-06-2021  23:50:00
25.7 °C
25-06-2021  18:10:00
18.32 °C
Abs-Feuchte
(Aussen-T/F)
10.24 g/m*3
25-06-2021  18:50:00
13.88 g/m*3
25-06-2021  20:10:00
12.27 g/m*3
Windchill
(Aussen-T/F)
14.2 C
25-06-2021  23:50:00
25.7 C
25-06-2021  18:10:00
18.26 C

Die Daten stammen von einer Davis Vantage Pro 2 Wetter-Station und werden unter Linux mit der Software wview2wettercgi und aufbereitet. Alle Angaben erfolgen ohne Gewähr für ihre Vollständigkeit oder Richtigkeit.
Kontakt: Rainer Krienke krienke@uni-koblenz.de . Meine Webseiten an der Uni Koblenz oder privat.
Version: $Revision: 0.78 $